Valldemossa, Spain

3:47 PM CET on February 08, 2016 (GMT +0100)
IPMVALLD5 | | Change Station
CLOSE
Current Station
Personal Weather Station
Location: Valldemossa II, ILLESBA
Elevation: 1400 ft
Nearby Weather Stations

Elev 1400 ft 39.71 °N, 2.63 °E | Updated 46 minutes ago

Partly Cloudy
Partly Cloudy
66.0 °F
Feels Like 66.0 °F
N
6.0
Wind Variable Wind from NW
Gusts 7.6 mph

Today
High -- | Low -- °F
--% Chance of Precip.
Yesterday
High -- | Low -- °F
Precip. -- in
Pressure 30.21 in
Visibility 6.2 miles
Clouds Few 2000 ft
Dew Point 43 °F
Humidity 43%
Rainfall 0.00 in
Snow Depth Not available.
7:51 AM 6:16 PM
Waning Crescent, 0% visible
METAR LEPA 081430Z 24011KT 210V270 9999 FEW020 16/09 Q1023 NOSIG
Pressure 30.21 in
Visibility 6.2 miles
Clouds Few 2000 ft
Dew Point 43 °F
Humidity 43%
Rainfall 0.00 in
Snow Depth Not available.
7:51 AM 6:16 PM
Waning Crescent, 0% visible
METAR LEPA 081430Z 24011KT 210V270 9999 FEW020 16/09 Q1023 NOSIG

10-Day Weather Forecast

Almanac

Astronomy

Feb. 08, 2016 Rise Set
Actual Time
Civil Twilight
Nautical Twilight
Astronomical Twilight
Moon
Length of Visible Light
Length of Day
Tomorrow will be .
, % of the Moon is Illuminated

Today's Extremes

Country Highs Country Lows

Community

WunderPhotos

Upload Photos

1,891,437 photos uploaded!

WunderBlog® & News

Nearby

Air Quality

  Air Quality AQ Index Pollutant
Not available.

Snow Depth

Station Depth Elevation

Earthquake Activity

City Distance Mag. Time & Date
Minimum magnitude displayed is 2.5.

Coastal Water Temperatures

Place Temperature

Stations

Nearby Weather Stations

Station Location Temp. Windchill Dew Point Humidity Wind Precip. Elev Updated Type